sensor_id;sensor_type;location;lat;lon;timestamp;temperature;humidity
32534;DHT22;18973;48.580;8.912;2024-01-06T00:01:45;6.40;99.90
32534;DHT22;18973;48.580;8.912;2024-01-06T00:04:11;6.50;99.90
32534;DHT22;18973;48.580;8.912;2024-01-06T00:06:36;6.50;99.90
32534;DHT22;18973;48.580;8.912;2024-01-06T00:09:02;6.50;99.90
32534;DHT22;18973;48.580;8.912;2024-01-06T00:11:28;6.50;99.90
32534;DHT22;18973;48.580;8.912;2024-01-06T00:13:54;6.50;99.90
32534;DHT22;18973;48.580;8.912;2024-01-06T00:16:20;6.50;99.90
32534;DHT22;18973;48.580;8.912;2024-01-06T00:18:46;6.40;99.90
32534;DHT22;18973;48.580;8.912;2024-01-06T00:21:12;6.40;99.90
32534;DHT22;18973;48.580;8.912;2024-01-06T00:23:40;6.20;99.90
32534;DHT22;18973;48.580;8.912;2024-01-06T00:26:06;6.10;99.90
32534;DHT22;18973;48.580;8.912;2024-01-06T00:28:32;6.00;99.90
32534;DHT22;18973;48.580;8.912;2024-01-06T00:30:58;5.90;99.90
32534;DHT22;18973;48.580;8.912;2024-01-06T00:33:23;6.00;99.90
32534;DHT22;18973;48.580;8.912;2024-01-06T00:35:49;6.20;99.90
32534;DHT22;18973;48.580;8.912;2024-01-06T00:38:15;6.20;99.90
32534;DHT22;18973;48.580;8.912;2024-01-06T00:40:40;6.10;99.90
32534;DHT22;18973;48.580;8.912;2024-01-06T00:43:06;6.20;99.90
32534;DHT22;18973;48.580;8.912;2024-01-06T00:45:32;6.20;99.90
32534;DHT22;18973;48.580;8.912;2024-01-06T00:47:57;6.20;99.90
32534;DHT22;18973;48.580;8.912;2024-01-06T00:50:23;6.10;99.90
32534;DHT22;18973;48.580;8.912;2024-01-06T00:52:49;6.00;99.90
32534;DHT22;18973;48.580;8.912;2024-01-06T00:55:18;6.00;99.90
32534;DHT22;18973;48.580;8.912;2024-01-06T00:57:44;5.80;99.90
32534;DHT22;18973;48.580;8.912;2024-01-06T01:00:10;5.80;99.90
32534;DHT22;18973;48.580;8.912;2024-01-06T01:02:36;5.90;99.90
32534;DHT22;18973;48.580;8.912;2024-01-06T01:05:02;5.70;99.90
32534;DHT22;18973;48.580;8.912;2024-01-06T01:07:28;5.60;99.90
32534;DHT22;18973;48.580;8.912;2024-01-06T01:09:53;5.60;99.90
32534;DHT22;18973;48.580;8.912;2024-01-06T01:12:19;5.60;99.90
32534;DHT22;18973;48.580;8.912;2024-01-06T01:14:45;5.70;99.90
32534;DHT22;18973;48.580;8.912;2024-01-06T01:17:10;5.70;99.90
32534;DHT22;18973;48.580;8.912;2024-01-06T01:19:36;5.80;99.90
32534;DHT22;18973;48.580;8.912;2024-01-06T01:22:02;5.70;99.90
32534;DHT22;18973;48.580;8.912;2024-01-06T01:24:27;5.60;99.90
32534;DHT22;18973;48.580;8.912;2024-01-06T01:26:53;5.70;99.90
32534;DHT22;18973;48.580;8.912;2024-01-06T01:29:18;5.90;99.90
32534;DHT22;18973;48.580;8.912;2024-01-06T01:31:46;6.00;99.90
32534;DHT22;18973;48.580;8.912;2024-01-06T01:34:12;6.00;99.90
32534;DHT22;18973;48.580;8.912;2024-01-06T01:36:38;5.80;99.90
32534;DHT22;18973;48.580;8.912;2024-01-06T01:39:03;5.70;99.90
32534;DHT22;18973;48.580;8.912;2024-01-06T01:41:29;5.80;99.90
32534;DHT22;18973;48.580;8.912;2024-01-06T01:43:55;5.70;99.90
32534;DHT22;18973;48.580;8.912;2024-01-06T01:46:27;5.90;99.90
32534;DHT22;18973;48.580;8.912;2024-01-06T01:48:55;5.70;99.90
32534;DHT22;18973;48.580;8.912;2024-01-06T01:51:23;5.60;99.90
32534;DHT22;18973;48.580;8.912;2024-01-06T01:53:50;5.60;99.90
32534;DHT22;18973;48.580;8.912;2024-01-06T01:56:16;5.60;99.90
32534;DHT22;18973;48.580;8.912;2024-01-06T01:58:42;5.50;99.90
32534;DHT22;18973;48.580;8.912;2024-01-06T02:01:09;5.70;99.90
32534;DHT22;18973;48.580;8.912;2024-01-06T02:03:35;5.70;99.90
32534;DHT22;18973;48.580;8.912;2024-01-06T02:06:01;5.50;99.90
32534;DHT22;18973;48.580;8.912;2024-01-06T02:08:27;5.50;99.90
32534;DHT22;18973;48.580;8.912;2024-01-06T02:10:56;5.60;99.90
32534;DHT22;18973;48.580;8.912;2024-01-06T02:13:22;5.70;99.90
32534;DHT22;18973;48.580;8.912;2024-01-06T02:15:49;5.60;99.90
32534;DHT22;18973;48.580;8.912;2024-01-06T02:18:14;5.50;99.90
32534;DHT22;18973;48.580;8.912;2024-01-06T02:20:43;5.70;99.90
32534;DHT22;18973;48.580;8.912;2024-01-06T02:23:09;5.50;99.90
32534;DHT22;18973;48.580;8.912;2024-01-06T02:25:34;5.60;99.90
32534;DHT22;18973;48.580;8.912;2024-01-06T02:28:01;5.80;99.90
32534;DHT22;18973;48.580;8.912;2024-01-06T02:30:26;5.70;99.90
32534;DHT22;18973;48.580;8.912;2024-01-06T02:32:52;5.90;99.90
32534;DHT22;18973;48.580;8.912;2024-01-06T02:35:18;5.90;99.90
32534;DHT22;18973;48.580;8.912;2024-01-06T02:37:43;5.80;99.90
32534;DHT22;18973;48.580;8.912;2024-01-06T02:40:10;5.90;99.90
32534;DHT22;18973;48.580;8.912;2024-01-06T02:42:35;5.80;99.90
32534;DHT22;18973;48.580;8.912;2024-01-06T02:45:02;5.90;99.90
32534;DHT22;18973;48.580;8.912;2024-01-06T02:47:27;5.90;99.90
32534;DHT22;18973;48.580;8.912;2024-01-06T02:49:53;6.10;99.90
32534;DHT22;18973;48.580;8.912;2024-01-06T02:52:19;5.80;99.90
32534;DHT22;18973;48.580;8.912;2024-01-06T02:54:44;5.90;99.90
32534;DHT22;18973;48.580;8.912;2024-01-06T02:57:10;5.90;99.90
32534;DHT22;18973;48.580;8.912;2024-01-06T02:59:38;5.80;99.90
32534;DHT22;18973;48.580;8.912;2024-01-06T03:02:04;5.70;99.90
32534;DHT22;18973;48.580;8.912;2024-01-06T03:04:30;5.80;99.90
32534;DHT22;18973;48.580;8.912;2024-01-06T03:06:55;5.70;99.90
32534;DHT22;18973;48.580;8.912;2024-01-06T03:09:21;5.70;99.90
32534;DHT22;18973;48.580;8.912;2024-01-06T03:11:47;5.80;99.90
32534;DHT22;18973;48.580;8.912;2024-01-06T03:14:12;5.80;99.90
32534;DHT22;18973;48.580;8.912;2024-01-06T03:16:38;5.60;99.90
32534;DHT22;18973;48.580;8.912;2024-01-06T03:19:04;5.60;99.90
32534;DHT22;18973;48.580;8.912;2024-01-06T03:21:30;5.70;99.90
32534;DHT22;18973;48.580;8.912;2024-01-06T03:23:56;5.80;99.90
32534;DHT22;18973;48.580;8.912;2024-01-06T03:26:21;5.70;99.90
32534;DHT22;18973;48.580;8.912;2024-01-06T03:28:49;5.80;99.90
32534;DHT22;18973;48.580;8.912;2024-01-06T03:31:15;5.80;99.90
32534;DHT22;18973;48.580;8.912;2024-01-06T03:33:41;5.90;99.90
32534;DHT22;18973;48.580;8.912;2024-01-06T03:36:07;6.00;99.90
32534;DHT22;18973;48.580;8.912;2024-01-06T03:38:33;6.00;99.90
32534;DHT22;18973;48.580;8.912;2024-01-06T03:40:59;6.00;99.90
32534;DHT22;18973;48.580;8.912;2024-01-06T03:43:25;6.10;99.90
32534;DHT22;18973;48.580;8.912;2024-01-06T03:45:50;6.10;99.90
32534;DHT22;18973;48.580;8.912;2024-01-06T03:48:16;5.90;99.90
32534;DHT22;18973;48.580;8.912;2024-01-06T03:50:42;5.90;99.90
32534;DHT22;18973;48.580;8.912;2024-01-06T03:53:07;6.00;99.90
32534;DHT22;18973;48.580;8.912;2024-01-06T03:55:33;6.10;99.90
32534;DHT22;18973;48.580;8.912;2024-01-06T03:57:59;6.00;99.90
32534;DHT22;18973;48.580;8.912;2024-01-06T04:00:25;6.00;99.90
32534;DHT22;18973;48.580;8.912;2024-01-06T04:02:51;5.90;99.90
32534;DHT22;18973;48.580;8.912;2024-01-06T04:05:17;5.80;99.90
32534;DHT22;18973;48.580;8.912;2024-01-06T04:07:42;5.90;99.90
32534;DHT22;18973;48.580;8.912;2024-01-06T04:10:08;5.80;99.90
32534;DHT22;18973;48.580;8.912;2024-01-06T04:12:34;5.80;99.90
32534;DHT22;18973;48.580;8.912;2024-01-06T04:15:00;5.80;99.90
32534;DHT22;18973;48.580;8.912;2024-01-06T04:17:25;5.80;99.90
32534;DHT22;18973;48.580;8.912;2024-01-06T04:19:52;5.80;99.90
32534;DHT22;18973;48.580;8.912;2024-01-06T04:22:18;5.70;99.90
32534;DHT22;18973;48.580;8.912;2024-01-06T04:24:44;5.60;99.90
32534;DHT22;18973;48.580;8.912;2024-01-06T04:27:09;5.60;99.90
32534;DHT22;18973;48.580;8.912;2024-01-06T04:29:35;5.60;99.90
32534;DHT22;18973;48.580;8.912;2024-01-06T04:32:01;5.50;99.90
32534;DHT22;18973;48.580;8.912;2024-01-06T04:34:26;5.60;99.90
32534;DHT22;18973;48.580;8.912;2024-01-06T04:36:52;5.60;99.90
32534;DHT22;18973;48.580;8.912;2024-01-06T04:39:18;5.70;99.90
32534;DHT22;18973;48.580;8.912;2024-01-06T04:41:43;5.50;99.90
32534;DHT22;18973;48.580;8.912;2024-01-06T04:44:09;5.50;99.90
32534;DHT22;18973;48.580;8.912;2024-01-06T04:46:35;5.60;99.90
32534;DHT22;18973;48.580;8.912;2024-01-06T04:49:00;5.60;99.90
32534;DHT22;18973;48.580;8.912;2024-01-06T04:51:26;5.70;99.90
32534;DHT22;18973;48.580;8.912;2024-01-06T04:53:52;5.80;99.90
32534;DHT22;18973;48.580;8.912;2024-01-06T04:56:18;5.80;99.90
32534;DHT22;18973;48.580;8.912;2024-01-06T04:58:44;5.90;99.90
32534;DHT22;18973;48.580;8.912;2024-01-06T05:01:10;5.90;99.90
32534;DHT22;18973;48.580;8.912;2024-01-06T05:03:36;6.00;99.90
32534;DHT22;18973;48.580;8.912;2024-01-06T05:06:01;6.00;99.90
32534;DHT22;18973;48.580;8.912;2024-01-06T05:08:30;6.00;99.90
32534;DHT22;18973;48.580;8.912;2024-01-06T05:10:58;6.00;99.90
32534;DHT22;18973;48.580;8.912;2024-01-06T05:13:24;6.00;99.90
32534;DHT22;18973;48.580;8.912;2024-01-06T05:15:50;5.90;99.90
32534;DHT22;18973;48.580;8.912;2024-01-06T05:18:15;5.90;99.90
32534;DHT22;18973;48.580;8.912;2024-01-06T05:20:41;5.50;99.90
32534;DHT22;18973;48.580;8.912;2024-01-06T05:23:07;5.30;99.90
32534;DHT22;18973;48.580;8.912;2024-01-06T05:25:33;5.20;99.90
32534;DHT22;18973;48.580;8.912;2024-01-06T05:27:58;5.10;99.90
32534;DHT22;18973;48.580;8.912;2024-01-06T05:30:24;5.20;99.90
32534;DHT22;18973;48.580;8.912;2024-01-06T05:32:50;5.30;99.90
32534;DHT22;18973;48.580;8.912;2024-01-06T05:35:16;5.50;99.90
32534;DHT22;18973;48.580;8.912;2024-01-06T05:37:42;5.50;99.90
32534;DHT22;18973;48.580;8.912;2024-01-06T05:40:08;5.60;99.90
32534;DHT22;18973;48.580;8.912;2024-01-06T05:42:34;5.60;99.90
32534;DHT22;18973;48.580;8.912;2024-01-06T05:45:00;5.70;99.90
32534;DHT22;18973;48.580;8.912;2024-01-06T05:47:25;5.40;99.90
32534;DHT22;18973;48.580;8.912;2024-01-06T05:49:51;5.30;99.90
32534;DHT22;18973;48.580;8.912;2024-01-06T05:52:17;5.40;99.90
32534;DHT22;18973;48.580;8.912;2024-01-06T05:54:43;5.20;99.90
32534;DHT22;18973;48.580;8.912;2024-01-06T05:57:08;5.10;99.90
32534;DHT22;18973;48.580;8.912;2024-01-06T05:59:34;5.00;99.90
32534;DHT22;18973;48.580;8.912;2024-01-06T06:02:03;5.00;99.90
32534;DHT22;18973;48.580;8.912;2024-01-06T06:04:29;5.10;99.90
32534;DHT22;18973;48.580;8.912;2024-01-06T06:06:54;5.30;99.90
32534;DHT22;18973;48.580;8.912;2024-01-06T06:09:20;5.40;99.90
32534;DHT22;18973;48.580;8.912;2024-01-06T06:11:47;5.40;99.90
32534;DHT22;18973;48.580;8.912;2024-01-06T06:14:13;5.50;99.90
32534;DHT22;18973;48.580;8.912;2024-01-06T06:16:39;5.60;99.90
32534;DHT22;18973;48.580;8.912;2024-01-06T06:19:05;5.50;99.90
32534;DHT22;18973;48.580;8.912;2024-01-06T06:21:31;5.30;99.90
32534;DHT22;18973;48.580;8.912;2024-01-06T06:23:57;5.40;99.90
32534;DHT22;18973;48.580;8.912;2024-01-06T06:26:23;5.40;99.90
32534;DHT22;18973;48.580;8.912;2024-01-06T06:28:48;5.50;99.90
32534;DHT22;18973;48.580;8.912;2024-01-06T06:31:14;5.40;99.90
32534;DHT22;18973;48.580;8.912;2024-01-06T06:33:40;5.60;99.90
32534;DHT22;18973;48.580;8.912;2024-01-06T06:36:06;5.60;99.90
32534;DHT22;18973;48.580;8.912;2024-01-06T06:38:31;5.70;99.90
32534;DHT22;18973;48.580;8.912;2024-01-06T06:40:57;5.50;99.90
32534;DHT22;18973;48.580;8.912;2024-01-06T06:43:23;5.50;99.90
32534;DHT22;18973;48.580;8.912;2024-01-06T06:45:48;5.60;99.90
32534;DHT22;18973;48.580;8.912;2024-01-06T06:48:14;5.50;99.90
32534;DHT22;18973;48.580;8.912;2024-01-06T06:50:40;5.50;99.90
32534;DHT22;18973;48.580;8.912;2024-01-06T06:53:07;5.50;99.90
32534;DHT22;18973;48.580;8.912;2024-01-06T06:55:33;5.60;99.90
32534;DHT22;18973;48.580;8.912;2024-01-06T06:57:58;5.60;99.90
32534;DHT22;18973;48.580;8.912;2024-01-06T07:00:24;5.70;99.90
32534;DHT22;18973;48.580;8.912;2024-01-06T07:02:50;5.70;99.90
32534;DHT22;18973;48.580;8.912;2024-01-06T07:05:16;5.60;99.90
32534;DHT22;18973;48.580;8.912;2024-01-06T07:07:42;5.70;99.90
32534;DHT22;18973;48.580;8.912;2024-01-06T07:10:12;5.60;99.90
32534;DHT22;18973;48.580;8.912;2024-01-06T07:12:38;5.70;99.90
32534;DHT22;18973;48.580;8.912;2024-01-06T07:15:03;5.70;99.90
32534;DHT22;18973;48.580;8.912;2024-01-06T07:17:29;5.80;99.90
32534;DHT22;18973;48.580;8.912;2024-01-06T07:19:55;5.80;99.90
32534;DHT22;18973;48.580;8.912;2024-01-06T07:22:21;5.80;99.90
32534;DHT22;18973;48.580;8.912;2024-01-06T07:24:46;5.60;99.90
32534;DHT22;18973;48.580;8.912;2024-01-06T07:27:12;5.60;99.90
32534;DHT22;18973;48.580;8.912;2024-01-06T07:29:38;5.60;99.90
32534;DHT22;18973;48.580;8.912;2024-01-06T07:32:04;5.70;99.90
32534;DHT22;18973;48.580;8.912;2024-01-06T07:34:32;5.70;99.90
32534;DHT22;18973;48.580;8.912;2024-01-06T07:36:57;5.70;99.90
32534;DHT22;18973;48.580;8.912;2024-01-06T07:39:23;5.50;99.90
32534;DHT22;18973;48.580;8.912;2024-01-06T07:41:50;5.40;99.90
32534;DHT22;18973;48.580;8.912;2024-01-06T07:44:15;5.40;99.90
32534;DHT22;18973;48.580;8.912;2024-01-06T07:46:41;5.50;99.90
32534;DHT22;18973;48.580;8.912;2024-01-06T07:49:07;5.60;99.90
32534;DHT22;18973;48.580;8.912;2024-01-06T07:51:33;5.60;99.90
32534;DHT22;18973;48.580;8.912;2024-01-06T07:54:01;5.60;99.90
32534;DHT22;18973;48.580;8.912;2024-01-06T07:56:26;5.70;99.90
32534;DHT22;18973;48.580;8.912;2024-01-06T07:58:52;5.80;99.90
32534;DHT22;18973;48.580;8.912;2024-01-06T08:01:18;5.80;99.90
32534;DHT22;18973;48.580;8.912;2024-01-06T08:03:44;5.80;99.90
32534;DHT22;18973;48.580;8.912;2024-01-06T08:06:10;5.80;99.90
32534;DHT22;18973;48.580;8.912;2024-01-06T08:08:36;5.70;99.90
32534;DHT22;18973;48.580;8.912;2024-01-06T08:11:01;5.80;99.90
32534;DHT22;18973;48.580;8.912;2024-01-06T08:13:27;5.70;99.90
32534;DHT22;18973;48.580;8.912;2024-01-06T08:15:53;5.80;99.90
32534;DHT22;18973;48.580;8.912;2024-01-06T08:18:18;5.90;99.90
32534;DHT22;18973;48.580;8.912;2024-01-06T08:20:44;5.80;99.90
32534;DHT22;18973;48.580;8.912;2024-01-06T08:23:10;5.90;99.90
32534;DHT22;18973;48.580;8.912;2024-01-06T08:25:36;5.90;99.90
32534;DHT22;18973;48.580;8.912;2024-01-06T08:28:02;6.10;99.90
32534;DHT22;18973;48.580;8.912;2024-01-06T08:30:27;6.00;99.90
32534;DHT22;18973;48.580;8.912;2024-01-06T08:32:53;6.10;99.90
32534;DHT22;18973;48.580;8.912;2024-01-06T08:35:19;6.10;99.90
32534;DHT22;18973;48.580;8.912;2024-01-06T08:37:45;6.10;99.90
32534;DHT22;18973;48.580;8.912;2024-01-06T08:40:11;6.10;99.90
32534;DHT22;18973;48.580;8.912;2024-01-06T08:42:37;6.20;99.90
32534;DHT22;18973;48.580;8.912;2024-01-06T08:45:04;6.30;99.90
32534;DHT22;18973;48.580;8.912;2024-01-06T08:47:30;6.50;99.90
32534;DHT22;18973;48.580;8.912;2024-01-06T08:49:56;6.40;99.90
32534;DHT22;18973;48.580;8.912;2024-01-06T08:52:22;6.40;99.90
32534;DHT22;18973;48.580;8.912;2024-01-06T08:54:47;6.40;99.90
32534;DHT22;18973;48.580;8.912;2024-01-06T08:57:15;6.30;99.90
32534;DHT22;18973;48.580;8.912;2024-01-06T08:59:40;6.30;99.90
32534;DHT22;18973;48.580;8.912;2024-01-06T09:02:06;6.30;99.90
32534;DHT22;18973;48.580;8.912;2024-01-06T09:04:32;6.20;99.90
32534;DHT22;18973;48.580;8.912;2024-01-06T09:06:57;6.30;99.90
32534;DHT22;18973;48.580;8.912;2024-01-06T09:09:24;6.40;99.90
32534;DHT22;18973;48.580;8.912;2024-01-06T09:11:49;6.40;99.90
32534;DHT22;18973;48.580;8.912;2024-01-06T09:14:17;6.30;99.90
32534;DHT22;18973;48.580;8.912;2024-01-06T09:16:43;6.20;99.90
32534;DHT22;18973;48.580;8.912;2024-01-06T09:19:09;6.30;99.90
32534;DHT22;18973;48.580;8.912;2024-01-06T09:21:34;6.30;99.90
32534;DHT22;18973;48.580;8.912;2024-01-06T09:24:01;6.30;99.90
32534;DHT22;18973;48.580;8.912;2024-01-06T09:26:32;6.30;99.90
32534;DHT22;18973;48.580;8.912;2024-01-06T09:28:59;6.30;99.90
32534;DHT22;18973;48.580;8.912;2024-01-06T09:31:25;6.40;99.90
32534;DHT22;18973;48.580;8.912;2024-01-06T09:33:51;6.50;99.90
32534;DHT22;18973;48.580;8.912;2024-01-06T09:36:16;6.50;99.90
32534;DHT22;18973;48.580;8.912;2024-01-06T09:38:43;6.60;99.90
32534;DHT22;18973;48.580;8.912;2024-01-06T09:41:09;6.70;99.90
32534;DHT22;18973;48.580;8.912;2024-01-06T09:43:34;6.60;99.90
32534;DHT22;18973;48.580;8.912;2024-01-06T09:46:15;6.60;99.90
32534;DHT22;18973;48.580;8.912;2024-01-06T09:48:42;6.60;99.90
32534;DHT22;18973;48.580;8.912;2024-01-06T09:51:10;6.60;99.90
32534;DHT22;18973;48.580;8.912;2024-01-06T09:53:43;6.50;99.90
32534;DHT22;18973;48.580;8.912;2024-01-06T09:56:12;6.50;99.90
32534;DHT22;18973;48.580;8.912;2024-01-06T09:58:39;6.70;99.90
32534;DHT22;18973;48.580;8.912;2024-01-06T10:01:06;6.60;99.90
32534;DHT22;18973;48.580;8.912;2024-01-06T10:03:32;6.50;99.90
32534;DHT22;18973;48.580;8.912;2024-01-06T10:05:59;6.50;99.90
32534;DHT22;18973;48.580;8.912;2024-01-06T10:08:29;6.50;99.90
32534;DHT22;18973;48.580;8.912;2024-01-06T10:10:55;6.60;99.90
32534;DHT22;18973;48.580;8.912;2024-01-06T10:13:20;6.60;99.90
32534;DHT22;18973;48.580;8.912;2024-01-06T10:15:46;6.60;99.90
32534;DHT22;18973;48.580;8.912;2024-01-06T10:18:13;6.50;99.90
32534;DHT22;18973;48.580;8.912;2024-01-06T10:20:39;6.60;99.90
32534;DHT22;18973;48.580;8.912;2024-01-06T10:23:05;6.60;99.90
32534;DHT22;18973;48.580;8.912;2024-01-06T10:25:31;6.70;99.90
32534;DHT22;18973;48.580;8.912;2024-01-06T10:27:57;6.60;99.90
32534;DHT22;18973;48.580;8.912;2024-01-06T10:30:25;6.60;99.90
32534;DHT22;18973;48.580;8.912;2024-01-06T10:32:52;6.70;99.90
32534;DHT22;18973;48.580;8.912;2024-01-06T10:35:18;6.70;99.90
32534;DHT22;18973;48.580;8.912;2024-01-06T10:37:44;6.70;99.90
32534;DHT22;18973;48.580;8.912;2024-01-06T10:40:12;6.60;99.90
32534;DHT22;18973;48.580;8.912;2024-01-06T10:42:39;6.60;99.90
32534;DHT22;18973;48.580;8.912;2024-01-06T10:45:11;6.80;99.90
32534;DHT22;18973;48.580;8.912;2024-01-06T10:47:38;6.80;99.90
32534;DHT22;18973;48.580;8.912;2024-01-06T10:50:04;6.90;99.90
32534;DHT22;18973;48.580;8.912;2024-01-06T10:52:31;7.00;99.90
32534;DHT22;18973;48.580;8.912;2024-01-06T10:54:58;7.00;99.90
32534;DHT22;18973;48.580;8.912;2024-01-06T10:57:24;7.00;99.90
32534;DHT22;18973;48.580;8.912;2024-01-06T10:59:51;7.00;99.90
32534;DHT22;18973;48.580;8.912;2024-01-06T11:02:17;7.00;99.90
32534;DHT22;18973;48.580;8.912;2024-01-06T11:04:47;6.90;99.90
32534;DHT22;18973;48.580;8.912;2024-01-06T11:07:15;6.90;99.90
32534;DHT22;18973;48.580;8.912;2024-01-06T11:09:49;6.90;99.90
32534;DHT22;18973;48.580;8.912;2024-01-06T11:12:16;7.00;99.90
32534;DHT22;18973;48.580;8.912;2024-01-06T11:14:42;7.10;99.90
32534;DHT22;18973;48.580;8.912;2024-01-06T11:17:08;6.90;99.90
32534;DHT22;18973;48.580;8.912;2024-01-06T11:22:25;6.90;99.90
32534;DHT22;18973;48.580;8.912;2024-01-06T11:25:03;6.90;99.90
32534;DHT22;18973;48.580;8.912;2024-01-06T11:27:30;6.90;99.90
32534;DHT22;18973;48.580;8.912;2024-01-06T11:29:58;7.00;99.90
32534;DHT22;18973;48.580;8.912;2024-01-06T11:34:55;6.90;99.90
32534;DHT22;18973;48.580;8.912;2024-01-06T11:42:52;6.90;99.90
32534;DHT22;18973;48.580;8.912;2024-01-06T11:45:21;7.00;99.90
32534;DHT22;18973;48.580;8.912;2024-01-06T11:47:48;7.00;99.90
32534;DHT22;18973;48.580;8.912;2024-01-06T11:50:14;7.00;99.90
32534;DHT22;18973;48.580;8.912;2024-01-06T11:52:41;6.90;99.90
32534;DHT22;18973;48.580;8.912;2024-01-06T11:55:07;6.90;99.90
32534;DHT22;18973;48.580;8.912;2024-01-06T11:57:36;9.50;99.90
32534;DHT22;18973;48.580;8.912;2024-01-06T12:00:01;11.10;99.90
32534;DHT22;18973;48.580;8.912;2024-01-06T12:02:29;11.80;99.90
32534;DHT22;18973;48.580;8.912;2024-01-06T12:04:55;12.50;99.90
32534;DHT22;18973;48.580;8.912;2024-01-06T12:07:21;11.90;99.90
32534;DHT22;18973;48.580;8.912;2024-01-06T12:10:08;11.10;99.90
32534;DHT22;18973;48.580;8.912;2024-01-06T12:12:34;10.30;99.90
32534;DHT22;18973;48.580;8.912;2024-01-06T12:15:00;9.60;99.90
32534;DHT22;18973;48.580;8.912;2024-01-06T12:17:29;9.10;99.90
32534;DHT22;18973;48.580;8.912;2024-01-06T12:19:55;8.60;99.90
32534;DHT22;18973;48.580;8.912;2024-01-06T12:22:21;8.50;99.90
32534;DHT22;18973;48.580;8.912;2024-01-06T12:24:49;8.40;99.90
32534;DHT22;18973;48.580;8.912;2024-01-06T12:27:17;8.20;99.90
32534;DHT22;18973;48.580;8.912;2024-01-06T12:29:43;8.00;99.90
32534;DHT22;18973;48.580;8.912;2024-01-06T12:32:09;8.00;99.90
32534;DHT22;18973;48.580;8.912;2024-01-06T12:34:35;7.90;99.90
32534;DHT22;18973;48.580;8.912;2024-01-06T12:37:02;7.80;99.90
32534;DHT22;18973;48.580;8.912;2024-01-06T12:39:28;7.70;99.90
32534;DHT22;18973;48.580;8.912;2024-01-06T12:41:55;7.70;99.90
32534;DHT22;18973;48.580;8.912;2024-01-06T12:44:21;7.80;99.90
32534;DHT22;18973;48.580;8.912;2024-01-06T12:46:47;7.70;99.90
32534;DHT22;18973;48.580;8.912;2024-01-06T12:49:13;7.80;99.90
32534;DHT22;18973;48.580;8.912;2024-01-06T12:51:39;7.80;99.90
32534;DHT22;18973;48.580;8.912;2024-01-06T12:54:05;7.70;99.90
32534;DHT22;18973;48.580;8.912;2024-01-06T12:56:31;7.80;99.90
32534;DHT22;18973;48.580;8.912;2024-01-06T12:58:57;7.80;99.90
32534;DHT22;18973;48.580;8.912;2024-01-06T13:01:23;7.90;99.90
32534;DHT22;18973;48.580;8.912;2024-01-06T13:03:48;8.00;99.90
32534;DHT22;18973;48.580;8.912;2024-01-06T13:06:14;7.90;99.90
32534;DHT22;18973;48.580;8.912;2024-01-06T13:08:42;7.80;99.90
32534;DHT22;18973;48.580;8.912;2024-01-06T13:11:08;7.60;99.90
32534;DHT22;18973;48.580;8.912;2024-01-06T13:13:34;7.50;99.90
32534;DHT22;18973;48.580;8.912;2024-01-06T13:16:00;7.50;99.90
32534;DHT22;18973;48.580;8.912;2024-01-06T13:18:28;7.50;99.90
32534;DHT22;18973;48.580;8.912;2024-01-06T13:20:54;7.50;99.90
32534;DHT22;18973;48.580;8.912;2024-01-06T13:23:20;7.40;99.90
32534;DHT22;18973;48.580;8.912;2024-01-06T13:25:45;7.30;99.90
32534;DHT22;18973;48.580;8.912;2024-01-06T13:28:11;7.20;99.90
32534;DHT22;18973;48.580;8.912;2024-01-06T13:30:37;7.20;99.90
32534;DHT22;18973;48.580;8.912;2024-01-06T13:33:05;7.10;99.90
32534;DHT22;18973;48.580;8.912;2024-01-06T13:35:30;7.20;99.90
32534;DHT22;18973;48.580;8.912;2024-01-06T13:37:56;7.20;99.90
32534;DHT22;18973;48.580;8.912;2024-01-06T13:40:23;7.20;99.90
32534;DHT22;18973;48.580;8.912;2024-01-06T13:42:50;7.20;99.90
32534;DHT22;18973;48.580;8.912;2024-01-06T13:45:19;7.20;99.90
32534;DHT22;18973;48.580;8.912;2024-01-06T13:47:45;7.20;99.90
32534;DHT22;18973;48.580;8.912;2024-01-06T13:50:16;7.10;99.90
32534;DHT22;18973;48.580;8.912;2024-01-06T13:52:42;7.20;99.90
32534;DHT22;18973;48.580;8.912;2024-01-06T13:55:08;7.10;99.90
32534;DHT22;18973;48.580;8.912;2024-01-06T13:57:34;7.00;99.90
32534;DHT22;18973;48.580;8.912;2024-01-06T14:00:00;7.00;99.90
32534;DHT22;18973;48.580;8.912;2024-01-06T14:02:26;7.10;99.90
32534;DHT22;18973;48.580;8.912;2024-01-06T14:04:52;7.00;99.90
32534;DHT22;18973;48.580;8.912;2024-01-06T14:07:18;7.00;99.90
32534;DHT22;18973;48.580;8.912;2024-01-06T14:09:48;7.00;99.90
32534;DHT22;18973;48.580;8.912;2024-01-06T14:12:14;7.00;99.90
32534;DHT22;18973;48.580;8.912;2024-01-06T14:14:40;6.90;99.90
32534;DHT22;18973;48.580;8.912;2024-01-06T14:17:09;6.80;99.90
32534;DHT22;18973;48.580;8.912;2024-01-06T14:19:34;6.80;99.90
32534;DHT22;18973;48.580;8.912;2024-01-06T14:22:00;6.70;99.90
32534;DHT22;18973;48.580;8.912;2024-01-06T14:24:26;6.70;99.90
32534;DHT22;18973;48.580;8.912;2024-01-06T14:26:53;6.70;99.90
32534;DHT22;18973;48.580;8.912;2024-01-06T14:29:20;6.70;99.90
32534;DHT22;18973;48.580;8.912;2024-01-06T14:31:46;6.70;99.90
32534;DHT22;18973;48.580;8.912;2024-01-06T14:34:12;6.70;99.90
32534;DHT22;18973;48.580;8.912;2024-01-06T14:36:38;6.70;99.90
32534;DHT22;18973;48.580;8.912;2024-01-06T14:39:04;6.80;99.90
32534;DHT22;18973;48.580;8.912;2024-01-06T14:41:32;6.80;99.90
32534;DHT22;18973;48.580;8.912;2024-01-06T14:43:58;6.80;99.90
32534;DHT22;18973;48.580;8.912;2024-01-06T14:46:24;6.70;99.90
32534;DHT22;18973;48.580;8.912;2024-01-06T14:48:50;6.60;99.90
32534;DHT22;18973;48.580;8.912;2024-01-06T14:51:17;6.60;99.90
32534;DHT22;18973;48.580;8.912;2024-01-06T14:53:43;6.70;99.90
32534;DHT22;18973;48.580;8.912;2024-01-06T14:56:09;6.50;99.90
32534;DHT22;18973;48.580;8.912;2024-01-06T14:58:34;6.60;99.90
32534;DHT22;18973;48.580;8.912;2024-01-06T15:01:00;6.70;99.90
32534;DHT22;18973;48.580;8.912;2024-01-06T15:03:26;6.60;99.90
32534;DHT22;18973;48.580;8.912;2024-01-06T15:05:51;6.50;99.90
32534;DHT22;18973;48.580;8.912;2024-01-06T15:08:17;6.50;99.90
32534;DHT22;18973;48.580;8.912;2024-01-06T15:10:43;6.50;99.90
32534;DHT22;18973;48.580;8.912;2024-01-06T15:13:08;6.60;99.90
32534;DHT22;18973;48.580;8.912;2024-01-06T15:15:34;6.50;99.90
32534;DHT22;18973;48.580;8.912;2024-01-06T15:18:00;6.50;99.90
32534;DHT22;18973;48.580;8.912;2024-01-06T15:20:26;6.40;99.90
32534;DHT22;18973;48.580;8.912;2024-01-06T15:22:53;6.50;99.90
32534;DHT22;18973;48.580;8.912;2024-01-06T15:25:18;6.40;99.90
32534;DHT22;18973;48.580;8.912;2024-01-06T15:27:45;6.30;99.90
32534;DHT22;18973;48.580;8.912;2024-01-06T15:30:12;6.40;99.90
32534;DHT22;18973;48.580;8.912;2024-01-06T15:32:38;6.50;99.90
32534;DHT22;18973;48.580;8.912;2024-01-06T15:35:07;6.50;99.90
32534;DHT22;18973;48.580;8.912;2024-01-06T15:37:35;6.50;99.90
32534;DHT22;18973;48.580;8.912;2024-01-06T15:40:02;6.40;99.90
32534;DHT22;18973;48.580;8.912;2024-01-06T15:42:28;6.40;99.90
32534;DHT22;18973;48.580;8.912;2024-01-06T15:44:54;6.40;99.90
32534;DHT22;18973;48.580;8.912;2024-01-06T15:47:20;6.40;99.90
32534;DHT22;18973;48.580;8.912;2024-01-06T15:49:46;6.40;99.90